Time;durP1;ratioP1;P1;durP2;ratioP2;P2;SDS_P1;SDS_P2;PMS_P1;PMS_P2;Temp;Humidity;BMP_temperature;BMP_pressure;BME280_temperature;BME280_humidity;BME280_pressure;Samples;Min_cycle;Max_cycle;Signal;HPM_P1;HPM_P2
2022/04/13 00:00:07;;;;;;;6.03;3.40;;;;;;;10.61;91.77;100397.53;679902;28;1675;-77
2022/04/13 00:00:30;;;;;;;6.40;3.53;;;;;;;10.60;92.13;100411.47;683243;28;1287;-76
2022/04/13 00:00:50;;;;;;;5.65;3.40;;;;;;;10.60;92.00;100401.00;683116;28;4310;-76
2022/04/13 00:01:11;;;;;;;5.53;3.30;;;;;;;10.57;92.26;100407.13;682928;28;1458;-77
2022/04/13 00:01:31;;;;;;;5.60;3.27;;;;;;;10.56;92.10;100406.28;683679;28;1476;-76
2022/04/13 00:01:52;;;;;;;4.90;3.10;;;;;;;10.56;91.00;100401.03;684876;28;1479;-76
2022/04/13 00:02:13;;;;;;;6.65;3.50;;;;;;;10.58;91.36;100408.88;684529;28;1530;-76
2022/04/13 00:02:33;;;;;;;6.43;3.53;;;;;;;10.59;91.60;100404.50;683784;28;1502;-78
2022/04/13 00:02:57;;;;;;;5.88;3.50;;;;;;;10.59;90.97;100404.50;685835;28;1511;-76
2022/04/13 00:03:17;;;;;;;5.90;3.47;;;;;;;10.55;91.49;100396.69;690260;28;1640;-76
2022/04/13 00:03:38;;;;;;;5.93;3.57;;;;;;;10.52;91.96;100407.19;683834;28;4311;-76
2022/04/13 00:03:58;;;;;;;7.55;3.65;;;;;;;10.53;91.97;100411.50;680801;28;1259;-76
2022/04/13 00:04:19;;;;;;;6.60;3.60;;;;;;;10.53;92.10;100411.50;683584;28;2509;-76
2022/04/13 00:04:39;;;;;;;6.03;3.53;;;;;;;10.52;91.92;100409.78;685165;28;1209;-77
2022/04/13 00:04:59;;;;;;;6.32;3.17;;;;;;;10.49;92.12;100403.72;684511;28;1533;-76
2022/04/13 00:05:20;;;;;;;7.90;3.30;;;;;;;10.49;91.80;100408.94;684858;28;1407;-76
2022/04/13 00:05:40;;;;;;;5.97;3.30;;;;;;;10.56;91.53;100408.88;682048;28;1364;-77
2022/04/13 00:06:01;;;;;;;6.87;3.30;;;;;;;10.59;90.96;100404.50;682594;28;1589;-77
2022/04/13 00:06:21;;;;;;;6.38;3.50;;;;;;;10.59;91.03;100405.34;681527;28;1678;-76
2022/04/13 00:06:42;;;;;;;5.73;3.40;;;;;;;10.56;91.14;100410.63;681134;28;4351;-76
2022/04/13 00:07:02;;;;;;;5.78;3.25;;;;;;;10.55;91.97;100407.16;684487;28;1580;-76
2022/04/13 00:07:23;;;;;;;6.27;3.37;;;;;;;10.56;92.00;100403.66;680025;28;1499;-76
2022/04/13 00:07:44;;;;;;;5.90;3.57;;;;;;;10.55;92.49;100407.16;681529;28;1652;-76
2022/04/13 00:08:07;;;;;;;5.37;3.40;;;;;;;10.53;92.45;100410.66;678867;29;1601;-76
2022/04/13 00:08:28;;;;;;;6.32;3.70;;;;;;;10.51;92.46;100402.81;678732;28;1517;-76
2022/04/13 00:08:50;;;;;;;6.90;3.60;;;;;;;10.50;92.62;100414.16;681722;28;4964;-76
2022/04/13 00:09:10;;;;;;;7.88;3.53;;;;;;;10.48;92.67;100410.69;680982;28;1649;-76
2022/04/13 00:09:30;;;;;;;7.28;3.55;;;;;;;10.49;92.42;100408.94;685105;28;1359;-76
2022/04/13 00:09:51;;;;;;;9.07;3.90;;;;;;;10.47;92.81;100411.56;685601;28;4272;-76
2022/04/13 00:10:12;;;;;;;6.43;3.83;;;;;;;10.46;93.43;100406.38;687260;28;1647;-76
2022/04/13 00:10:34;;;;;;;6.53;3.58;;;;;;;10.44;93.70;100414.22;683832;28;1802;-76
2022/04/13 00:10:54;;;;;;;5.95;3.47;;;;;;;10.42;93.47;100404.66;681363;28;1500;-76
2022/04/13 00:11:17;;;;;;;5.30;3.33;;;;;;;10.38;92.79;100412.53;683591;28;1493;-76
2022/04/13 00:11:40;;;;;;;7.22;3.55;;;;;;;10.41;92.75;100403.75;686119;28;1384;-76
2022/04/13 00:12:00;;;;;;;6.43;3.75;;;;;;;10.40;93.33;100407.28;684830;28;1209;-76
2022/04/13 00:12:21;;;;;;;6.30;3.70;;;;;;;10.41;93.52;100410.75;685303;28;1526;-76
2022/04/13 00:12:41;;;;;;;6.03;3.70;;;;;;;10.41;93.28;100409.00;684943;28;4288;-76
2022/04/13 00:13:03;;;;;;;6.47;3.83;;;;;;;10.40;93.70;100415.13;687907;28;1506;-76
2022/04/13 00:13:23;;;;;;;6.22;3.83;;;;;;;10.40;93.64;100412.50;687136;28;1602;-76
2022/04/13 00:13:44;;;;;;;5.33;3.50;;;;;;;10.40;93.62;100409.91;687369;28;1565;-76
2022/04/13 00:14:04;;;;;;;5.32;3.50;;;;;;;10.39;93.57;100406.41;689798;28;1474;-76
2022/04/13 00:14:24;;;;;;;6.40;3.53;;;;;;;10.36;93.93;100409.03;689142;28;1537;-76
2022/04/13 00:14:48;;;;;;;6.65;3.50;;;;;;;10.31;93.84;100410.78;689787;28;1482;-76
2022/04/13 00:15:09;;;;;;;6.43;3.53;;;;;;;10.29;94.13;100404.72;687773;28;1385;-76
2022/04/13 00:15:30;;;;;;;5.93;3.70;;;;;;;10.27;94.22;100408.22;685011;28;1347;-76
2022/04/13 00:15:50;;;;;;;5.30;3.50;;;;;;;10.29;94.36;100409.09;683462;28;4280;-76
2022/04/13 00:16:10;;;;;;;5.60;3.50;;;;;;;10.29;94.17;100406.47;681109;28;1205;-76
2022/04/13 00:16:31;;;;;;;6.43;3.57;;;;;;;10.29;94.17;100399.50;679707;28;1354;-76
2022/04/13 00:16:51;;;;;;;6.80;3.70;;;;;;;10.30;94.20;100403.84;680518;28;1433;-76
2022/04/13 00:17:12;;;;;;;8.13;3.60;;;;;;;10.31;93.89;100402.09;681823;28;1432;-76
2022/04/13 00:17:37;;;;;;;6.65;3.45;;;;;;;10.29;94.07;100407.31;684706;28;1434;-76
2022/04/13 00:18:05;;;;;;;6.25;3.42;;;;;;;10.29;93.60;100407.31;684407;28;1501;-76
2022/04/13 00:18:26;;;;;;;5.50;3.47;;;;;;;10.31;92.87;100415.16;687438;28;1703;-76
2022/04/13 00:18:46;;;;;;;6.43;3.50;;;;;;;10.37;93.45;100407.28;688461;28;4298;-76
2022/04/13 00:19:07;;;;;;;6.23;3.70;;;;;;;10.37;93.42;100416.00;687475;28;2063;-76
2022/04/13 00:19:27;;;;;;;6.10;3.53;;;;;;;10.38;93.34;100412.53;683963;28;1922;-76
2022/04/13 00:19:48;;;;;;;6.10;3.50;;;;;;;10.37;93.17;100416.00;683361;28;1379;-76
2022/04/13 00:20:09;;;;;;;6.22;3.53;;;;;;;10.34;93.44;100416.03;688066;28;1465;-78
2022/04/13 00:20:29;;;;;;;6.05;3.58;;;;;;;10.30;93.70;100406.47;685568;28;1235;-76
2022/04/13 00:20:49;;;;;;;5.90;3.80;;;;;;;10.30;92.77;100418.63;683788;28;1615;-76
2022/04/13 00:21:10;;;;;;;5.20;3.47;;;;;;;10.33;92.70;100423.84;683886;28;1458;-76
2022/04/13 00:21:30;;;;;;;6.03;3.90;;;;;;;10.34;93.09;100415.13;684157;28;1323;-76
2022/04/13 00:21:51;;;;;;;6.45;3.70;;;;;;;10.27;93.70;100413.44;683876;28;4416;-76
2022/04/13 00:22:11;;;;;;;6.13;3.83;;;;;;;10.27;93.96;100421.28;686420;28;1452;-76
2022/04/13 00:22:31;;;;;;;6.50;4.00;;;;;;;10.27;93.80;100416.06;686732;28;1050;-77
2022/04/13 00:22:52;;;;;;;5.97;3.90;;;;;;;10.28;93.97;100405.59;685248;28;1358;-76
2022/04/13 00:23:12;;;;;;;6.40;3.58;;;;;;;10.29;94.27;100417.78;683514;28;1310;-77
2022/04/13 00:23:33;;;;;;;6.00;3.70;;;;;;;10.28;94.21;100416.03;684141;28;1430;-76
2022/04/13 00:23:53;;;;;;;6.03;3.70;;;;;;;10.26;94.28;100414.31;687591;28;1207;-76
2022/04/13 00:24:13;;;;;;;6.13;3.70;;;;;;;10.21;94.21;100424.81;688062;28;1246;-76
2022/04/13 00:24:34;;;;;;;6.40;3.83;;;;;;;10.17;94.87;100413.50;686350;28;4311;-76
2022/04/13 00:24:54;;;;;;;6.28;3.72;;;;;;;10.15;94.82;100410.03;681280;28;1561;-76
2022/04/13 00:25:15;;;;;;;6.23;4.00;;;;;;;10.14;95.04;100418.75;683433;28;1606;-76
2022/04/13 00:25:38;;;;;;;6.00;3.70;;;;;;;10.13;94.88;100410.94;683362;28;1396;-76
2022/04/13 00:25:59;;;;;;;5.82;3.35;;;;;;;10.14;94.48;100413.53;681544;28;1607;-76
2022/04/13 00:26:19;;;;;;;6.17;3.50;;;;;;;10.15;94.81;100415.28;682128;28;1133;-76
2022/04/13 00:26:39;;;;;;;6.13;3.30;;;;;;;10.15;94.98;100415.28;681533;28;1109;-76
2022/04/13 00:27:00;;;;;;;5.50;3.40;;;;;;;10.15;95.08;100419.59;685104;28;1255;-76
2022/04/13 00:27:20;;;;;;;6.03;3.50;;;;;;;10.15;95.29;100420.50;689995;28;1103;-77
2022/04/13 00:27:40;;;;;;;5.30;3.40;;;;;;;10.14;95.31;100416.13;686967;28;4319;-77
2022/04/13 00:28:01;;;;;;;6.20;3.23;;;;;;;10.13;95.05;100416.16;686113;28;1157;-77
2022/04/13 00:28:22;;;;;;;6.70;3.57;;;;;;;10.11;95.03;100410.94;683702;28;1312;-77
2022/04/13 00:28:43;;;;;;;5.72;3.47;;;;;;;10.12;94.98;100419.63;677331;28;1626;-77
2022/04/13 00:29:03;;;;;;;6.47;3.55;;;;;;;10.12;95.11;100417.03;680398;28;1308;-77
2022/04/13 00:29:24;;;;;;;7.30;3.83;;;;;;;10.11;94.93;100418.78;683861;28;1603;-77
2022/04/13 00:29:45;;;;;;;6.25;3.58;;;;;;;10.09;95.05;100415.28;684298;28;1238;-77
2022/04/13 00:30:06;;;;;;;6.18;3.28;;;;;;;10.07;95.43;100429.25;685157;28;1470;-76
2022/04/13 00:30:26;;;;;;;5.35;3.30;;;;;;;10.04;95.53;100422.31;686494;28;1973;-76
2022/04/13 00:30:47;;;;;;;5.32;3.45;;;;;;;10.04;94.97;100417.09;686191;28;4263;-77
2022/04/13 00:31:07;;;;;;;6.03;3.70;;;;;;;10.02;94.82;100418.81;688942;28;1531;-76
2022/04/13 00:31:27;;;;;;;5.83;3.60;;;;;;;10.04;94.98;100411.88;689893;28;1596;-76
2022/04/13 00:31:48;;;;;;;5.50;3.22;;;;;;;10.07;94.19;100410.97;688914;28;1349;-76
2022/04/13 00:32:09;;;;;;;7.20;3.53;;;;;;;10.08;94.58;100413.59;687361;28;1570;-77
2022/04/13 00:32:29;;;;;;;6.03;3.70;;;;;;;10.08;94.21;100421.41;685734;28;1217;-77
2022/04/13 00:32:49;;;;;;;5.67;3.50;;;;;;;10.08;94.53;100424.03;687880;28;1511;-77
2022/04/13 00:33:10;;;;;;;5.40;3.50;;;;;;;10.06;94.31;100412.72;683903;28;1199;-76
2022/04/13 00:33:32;;;;;;;5.33;3.50;;;;;;;10.05;94.58;100419.69;685326;28;1502;-76
2022/04/13 00:33:52;;;;;;;5.60;3.50;;;;;;;10.07;94.53;100417.06;683226;28;4442;-76
2022/04/13 00:34:13;;;;;;;5.33;3.50;;;;;;;10.07;94.59;100417.06;685292;28;1507;-77
2022/04/13 00:34:34;;;;;;;6.03;3.73;;;;;;;10.06;94.72;100415.31;688056;28;1290;-77
2022/04/13 00:34:57;;;;;;;6.47;3.50;;;;;;;10.07;94.98;100418.81;684246;28;1477;-77
2022/04/13 00:35:17;;;;;;;5.88;3.63;;;;;;;10.08;94.83;100418.81;684224;28;1439;-76
2022/04/13 00:35:38;;;;;;;5.20;3.50;;;;;;;10.08;94.93;100418.81;686290;28;1489;-77
2022/04/13 00:35:59;;;;;;;5.82;3.58;;;;;;;10.07;94.92;100419.69;683738;28;1510;-77
2022/04/13 00:36:19;;;;;;;5.75;3.42;;;;;;;10.07;95.06;100417.06;684051;28;1258;-77
2022/04/13 00:36:39;;;;;;;5.90;3.60;;;;;;;10.05;94.85;100414.47;683713;28;4481;-77
2022/04/13 00:37:00;;;;;;;6.73;3.80;;;;;;;10.03;94.76;100420.56;686689;28;1483;-77
2022/04/13 00:37:21;;;;;;;6.65;3.70;;;;;;;10.05;95.39;100421.41;682694;28;1370;-76
2022/04/13 00:37:41;;;;;;;5.80;3.73;;;;;;;10.05;95.38;100416.19;680833;28;1649;-77
2022/04/13 00:38:02;;;;;;;5.65;3.40;;;;;;;10.04;94.14;100422.31;675493;28;1535;-77
2022/04/13 00:38:22;;;;;;;5.83;3.43;;;;;;;10.03;94.44;100421.44;678673;29;1381;-76
2022/04/13 00:38:43;;;;;;;6.13;3.45;;;;;;;10.02;95.36;100424.06;679959;28;1303;-77
2022/04/13 00:39:03;;;;;;;6.47;3.50;;;;;;;9.99;95.27;100430.16;681492;28;1368;-76
2022/04/13 00:39:24;;;;;;;7.00;3.80;;;;;;;9.98;95.26;100424.94;680857;28;1898;-76
2022/04/13 00:39:45;;;;;;;6.20;3.67;;;;;;;9.97;95.28;100415.38;680927;28;4361;-76
2022/04/13 00:40:07;;;;;;;5.50;3.37;;;;;;;9.98;95.09;100425.84;685857;28;1666;-77
2022/04/13 00:40:27;;;;;;;5.55;3.50;;;;;;;9.98;95.21;100417.13;685665;28;1460;-76
2022/04/13 00:40:49;;;;;;;5.30;3.40;;;;;;;9.99;95.18;100414.50;687218;28;1502;-77
2022/04/13 00:41:09;;;;;;;5.00;3.45;;;;;;;9.99;95.11;100411.03;686208;28;1679;-76
2022/04/13 00:41:29;;;;;;;5.53;3.70;;;;;;;9.99;95.05;100421.47;684580;28;1415;-77
2022/04/13 00:42:02;;;;;;;6.33;3.50;;;;;;;9.96;95.55;100421.50;687055;28;1598;-77
2022/04/13 00:42:24;;;;;;;7.38;4.20;;;;;;;9.92;95.06;100422.38;687733;28;1384;-77
2022/04/13 00:42:44;;;;;;;7.32;3.92;;;;;;;9.91;95.07;100421.50;682748;28;5325;-76
2022/04/13 00:43:05;;;;;;;6.23;3.23;;;;;;;9.91;95.75;100412.81;680287;28;1336;-76
2022/04/13 00:43:25;;;;;;;5.15;3.22;;;;;;;9.92;95.38;100417.16;680699;28;1710;-77
2022/04/13 00:44:09;;;;;;;7.38;3.60;;;;;;;9.96;94.27;100418.88;680561;28;1527;-76
2022/04/13 00:44:30;;;;;;;6.03;3.65;;;;;;;9.98;94.63;100427.56;681732;28;1458;-76
2022/04/13 00:44:51;;;;;;;6.25;3.60;;;;;;;9.95;95.59;100422.38;687607;28;1326;-77
2022/04/13 00:45:11;;;;;;;5.97;3.63;;;;;;;9.92;95.81;100423.25;683651;28;1568;-77
2022/04/13 00:45:32;;;;;;;5.53;3.40;;;;;;;9.91;95.78;100426.72;683994;28;1442;-77
2022/04/13 00:45:52;;;;;;;5.38;3.50;;;;;;;9.88;95.61;100425.03;686079;28;5165;-77
2022/04/13 00:46:13;;;;;;;5.13;3.53;;;;;;;9.87;95.52;100425.88;684059;28;1549;-77
2022/04/13 00:46:33;;;;;;;5.70;3.55;;;;;;;9.87;95.61;100430.22;684871;28;1589;-77
2022/04/13 00:46:54;;;;;;;6.03;3.63;;;;;;;9.85;95.87;100422.41;681765;28;1311;-76
2022/04/13 00:47:15;;;;;;;5.93;3.55;;;;;;;9.83;95.21;100424.19;685981;28;2283;-77
2022/04/13 00:47:40;;;;;;;6.20;3.30;;;;;;;9.83;95.30;100423.28;686670;28;1248;-76
2022/04/13 00:48:03;;;;;;;5.70;3.30;;;;;;;9.81;95.65;100420.69;686223;28;1341;-76
2022/04/13 00:48:23;;;;;;;5.88;3.60;;;;;;;9.81;95.79;100420.69;686397;28;1295;-77
2022/04/13 00:48:45;;;;;;;5.50;3.60;;;;;;;9.80;95.94;100418.97;687332;28;4282;-77
2022/04/13 00:49:06;;;;;;;6.40;3.55;;;;;;;9.81;96.00;100425.06;683825;28;1549;-76
2022/04/13 00:49:27;;;;;;;4.80;3.42;;;;;;;9.80;96.70;100428.53;687645;28;1591;-77
2022/04/13 00:49:47;;;;;;;4.97;3.33;;;;;;;9.78;96.58;100420.72;683915;28;1106;-77
2022/04/13 00:50:09;;;;;;;6.97;3.90;;;;;;;9.79;96.59;100427.69;682707;28;992;-76
2022/04/13 00:50:30;;;;;;;6.45;3.70;;;;;;;9.80;96.48;100423.31;681067;28;1517;-76
2022/04/13 00:50:50;;;;;;;6.97;3.58;;;;;;;9.80;96.39;100425.91;683074;28;1239;-77
2022/04/13 00:51:10;;;;;;;6.47;3.53;;;;;;;9.81;96.36;100433.75;682944;28;1292;-77
2022/04/13 00:51:31;;;;;;;6.17;3.73;;;;;;;9.79;95.89;100421.56;681845;28;1617;-77
2022/04/13 00:51:52;;;;;;;6.57;3.70;;;;;;;9.78;96.28;100427.69;682746;28;4265;-77
2022/04/13 00:52:15;;;;;;;6.60;3.75;;;;;;;9.75;95.91;100425.97;681133;28;1319;-77
2022/04/13 00:52:43;;;;;;;6.32;3.85;;;;;;;9.77;96.88;100423.34;683580;28;1762;-77
2022/04/13 00:53:05;;;;;;;5.95;3.55;;;;;;;9.76;96.57;100421.59;685371;28;1276;-78
2022/04/13 00:53:26;;;;;;;6.07;3.53;;;;;;;9.76;96.93;100427.69;684616;28;1632;-77
2022/04/13 00:53:47;;;;;;;6.57;3.67;;;;;;;9.76;96.91;100432.03;680933;28;1960;-77
2022/04/13 00:54:08;;;;;;;6.40;3.60;;;;;;;9.75;96.07;100425.97;682735;28;1335;-77
2022/04/13 00:54:29;;;;;;;6.10;3.70;;;;;;;9.74;96.43;100432.03;685167;28;1599;-77
2022/04/13 00:54:53;;;;;;;6.97;3.60;;;;;;;9.71;96.92;100429.47;687778;28;4255;-77
2022/04/13 00:55:14;;;;;;;6.40;3.75;;;;;;;9.73;96.16;100427.69;685875;28;1414;-77
2022/04/13 00:55:38;;;;;;;5.22;3.58;;;;;;;9.75;96.88;100425.97;687008;28;2090;-77
2022/04/13 00:56:00;;;;;;;5.80;3.60;;;;;;;9.75;97.15;100439.00;679242;28;1331;-77
2022/04/13 00:56:23;;;;;;;6.57;3.58;;;;;;;9.75;97.04;100425.97;679772;28;1361;-77
2022/04/13 00:56:47;;;;;;;6.85;3.47;;;;;;;9.75;97.30;100431.19;683787;28;1379;-77
2022/04/13 00:57:09;;;;;;;6.07;3.65;;;;;;;9.75;97.06;100433.78;682960;28;1364;-76
2022/04/13 00:57:34;;;;;;;7.38;3.65;;;;;;;9.75;97.23;100427.69;684850;28;1532;-77
2022/04/13 00:57:58;;;;;;;6.03;3.42;;;;;;;9.72;97.42;100425.97;681065;28;4697;-76
2022/04/13 00:58:22;;;;;;;6.30;3.60;;;;;;;9.73;97.36;100432.06;679525;28;1456;-76
2022/04/13 00:58:45;;;;;;;7.32;3.42;;;;;;;9.73;97.45;100429.44;678160;28;1551;-77
2022/04/13 00:59:10;;;;;;;6.93;3.60;;;;;;;9.71;97.32;100430.31;681435;28;1724;-76
2022/04/13 00:59:31;;;;;;;6.88;3.97;;;;;;;9.68;97.16;100430.34;680970;28;1924;-77
2022/04/13 00:59:53;;;;;;;6.47;3.90;;;;;;;9.69;96.51;100425.97;682091;28;1249;-77
2022/04/13 01:00:15;;;;;;;5.93;3.53;;;;;;;9.73;96.23;100427.69;682505;28;1451;-77
2022/04/13 01:00:38;;;;;;;6.30;3.58;;;;;;;9.71;96.76;100432.06;675975;28;4672;-76
2022/04/13 01:01:01;;;;;;;6.60;3.65;;;;;;;9.68;97.22;100425.13;675169;28;1795;-77
2022/04/13 01:01:23;;;;;;;6.55;3.63;;;;;;;9.69;96.37;100431.19;683545;28;1845;-76
2022/04/13 01:01:48;;;;;;;6.53;3.75;;;;;;;9.76;96.07;100426.81;679002;28;1774;-76
2022/04/13 01:02:08;;;;;;;5.95;3.50;;;;;;;9.87;95.32;100435.44;682041;28;1757;-76
2022/04/13 01:02:30;;;;;;;5.22;3.60;;;;;;;9.96;94.98;100434.56;684467;28;1390;-76
2022/04/13 01:02:52;;;;;;;5.50;3.60;;;;;;;10.02;94.86;100434.50;680150;28;1677;-76
2022/04/13 01:03:13;;;;;;;5.82;3.60;;;;;;;10.00;95.13;100425.81;681340;28;1489;-78
2022/04/13 01:03:35;;;;;;;6.18;3.78;;;;;;;9.99;95.71;100434.53;682449;28;1739;-76
2022/04/13 01:03:57;;;;;;;6.60;3.63;;;;;;;9.97;95.73;100431.03;682791;28;4768;-77
2022/04/13 01:04:18;;;;;;;6.57;3.65;;;;;;;9.95;95.97;100432.81;683681;28;1482;-77
2022/04/13 01:04:40;;;;;;;5.50;3.78;;;;;;;9.94;96.19;100436.28;684983;28;1556;-76
2022/04/13 01:05:06;;;;;;;6.10;3.70;;;;;;;9.94;95.91;100438.91;685623;28;3431;-76
2022/04/13 01:05:27;;;;;;;5.45;3.60;;;;;;;9.92;96.31;100435.44;689325;28;1956;-77
2022/04/13 01:05:49;;;;;;;5.88;3.83;;;;;;;9.91;95.67;100436.31;683353;28;1284;-76
2022/04/13 01:06:10;;;;;;;6.57;3.80;;;;;;;9.91;95.83;100436.31;681476;28;1276;-76
2022/04/13 01:06:31;;;;;;;6.00;3.35;;;;;;;9.90;95.46;100440.69;676755;29;1219;-77
2022/04/13 01:06:52;;;;;;;6.15;3.58;;;;;;;9.87;96.08;100441.56;678284;28;4324;-76
2022/04/13 01:07:12;;;;;;;6.03;3.55;;;;;;;9.85;96.15;100434.59;679836;28;1481;-77
2022/04/13 01:07:34;;;;;;;6.37;3.60;;;;;;;9.80;96.83;100432.03;679833;28;1682;-77
2022/04/13 01:07:55;;;;;;;6.47;3.50;;;;;;;9.82;96.57;100440.72;680633;28;1386;-77
2022/04/13 01:08:17;;;;;;;6.07;3.50;;;;;;;9.81;96.85;100444.19;685610;28;1176;-76
2022/04/13 01:08:38;;;;;;;6.63;3.95;;;;;;;9.83;95.49;100432.00;684295;28;4463;-77
2022/04/13 01:08:59;;;;;;;6.40;3.83;;;;;;;9.85;95.31;100432.00;682009;28;1562;-76
2022/04/13 01:09:19;;;;;;;6.73;3.47;;;;;;;9.90;95.28;100435.47;683891;28;1526;-77
2022/04/13 01:09:40;;;;;;;5.03;3.50;;;;;;;9.88;96.02;100438.06;684477;28;4340;-76
2022/04/13 01:10:07;;;;;;;5.45;3.22;;;;;;;9.86;95.84;100431.13;684041;28;1489;-77
2022/04/13 01:10:29;;;;;;;4.93;3.42;;;;;;;9.86;96.28;100436.34;684245;28;1192;-76
2022/04/13 01:10:52;;;;;;;6.13;3.80;;;;;;;9.85;96.38;100443.28;683962;28;1479;-76
2022/04/13 01:11:14;;;;;;;6.50;3.60;;;;;;;9.84;96.66;100433.75;684477;28;1936;-76
2022/04/13 01:11:34;;;;;;;6.60;3.60;;;;;;;9.85;96.52;100438.06;684157;28;1260;-76
2022/04/13 01:11:54;;;;;;;6.37;3.50;;;;;;;9.83;96.87;100439.84;682825;28;1146;-76
2022/04/13 01:12:15;;;;;;;8.02;3.60;;;;;;;9.81;97.39;100433.75;684117;28;1700;-76
2022/04/13 01:12:36;;;;;;;7.55;3.80;;;;;;;9.82;96.88;100434.63;683085;28;4310;-76
2022/04/13 01:12:57;;;;;;;5.20;3.65;;;;;;;9.81;97.14;100433.75;685837;28;1354;-76
2022/04/13 01:13:18;;;;;;;5.90;3.73;;;;;;;9.80;96.87;100428.53;687303;28;1377;-77
2022/04/13 01:13:39;;;;;;;6.40;3.42;;;;;;;9.82;95.79;100426.78;688284;28;1814;-77
2022/04/13 01:13:59;;;;;;;5.97;3.30;;;;;;;9.87;96.38;100436.34;686721;28;1115;-76
2022/04/13 01:14:20;;;;;;;5.72;3.38;;;;;;;9.90;96.37;100438.06;683645;28;1514;-76
2022/04/13 01:14:40;;;;;;;6.88;3.67;;;;;;;9.93;94.72;100431.94;683415;28;1499;-77
2022/04/13 01:15:02;;;;;;;6.33;3.50;;;;;;;9.95;95.02;100433.66;683698;28;1685;-76
2022/04/13 01:15:23;;;;;;;5.53;3.33;;;;;;;9.97;95.59;100431.94;684741;28;1856;-76
2022/04/13 01:15:44;;;;;;;5.20;3.30;;;;;;;9.98;95.60;100438.00;683817;28;4284;-77
2022/04/13 01:16:06;;;;;;;5.50;3.30;;;;;;;9.98;95.63;100430.16;688088;28;1251;-77
2022/04/13 01:16:26;;;;;;;5.80;3.60;;;;;;;9.97;96.02;100441.47;685853;28;1799;-76
2022/04/13 01:16:47;;;;;;;6.70;3.50;;;;;;;9.96;96.10;100439.78;687069;28;2038;-77
2022/04/13 01:17:07;;;;;;;5.43;3.40;;;;;;;9.95;96.03;100438.03;688533;28;1263;-76
2022/04/13 01:17:28;;;;;;;5.88;3.65;;;;;;;9.94;95.99;100433.69;689398;28;1244;-76
2022/04/13 01:17:48;;;;;;;5.47;3.70;;;;;;;9.93;96.02;100434.53;688581;28;1116;-76
2022/04/13 01:18:09;;;;;;;5.30;3.55;;;;;;;9.89;96.23;100438.94;688176;28;1121;-76
2022/04/13 01:18:29;;;;;;;6.77;3.63;;;;;;;9.86;96.66;100439.81;684899;28;1499;-77
2022/04/13 01:18:51;;;;;;;7.47;3.88;;;;;;;9.86;96.47;100437.19;681438;28;4377;-76
2022/04/13 01:19:14;;;;;;;5.80;3.65;;;;;;;9.85;96.86;100438.06;678192;29;1612;-76
2022/04/13 01:19:34;;;;;;;4.90;3.50;;;;;;;9.85;96.59;100432.00;677938;28;1915;-76
2022/04/13 01:19:56;;;;;;;5.37;3.43;;;;;;;9.81;96.92;100433.75;679592;28;1769;-76
2022/04/13 01:20:17;;;;;;;7.40;3.70;;;;;;;9.80;96.87;100432.03;681881;28;1410;-77
2022/04/13 01:20:42;;;;;;;6.07;3.70;;;;;;;9.80;96.92;100437.25;681340;28;1485;-76
2022/04/13 01:21:02;;;;;;;5.20;3.40;;;;;;;9.80;96.45;100437.25;682736;28;809;-77
2022/04/13 01:21:45;;;;;;;6.27;3.30;;;;;;;9.84;96.11;100438.09;683717;28;1652;-76
2022/04/13 01:22:21;;;;;;;5.43;3.22;;;;;;;9.92;96.65;100436.31;687297;28;4942;-76
2022/04/13 01:22:44;;;;;;;6.20;3.25;;;;;;;9.91;97.23;100439.78;692889;28;1025;-76
2022/04/13 01:23:06;;;;;;;7.97;3.72;;;;;;;9.92;96.50;100438.06;689486;28;1223;-77
2022/04/13 01:23:28;;;;;;;6.35;3.70;;;;;;;9.92;96.79;100448.50;688899;28;1139;-78
2022/04/13 01:23:50;;;;;;;6.18;3.50;;;;;;;9.91;95.56;100442.38;688888;28;1363;-77
2022/04/13 01:24:11;;;;;;;5.53;3.35;;;;;;;9.92;95.92;100436.31;692739;28;1305;-76
2022/04/13 01:24:32;;;;;;;5.43;3.60;;;;;;;9.94;95.70;100438.91;688494;28;1393;-76
2022/04/13 01:24:53;;;;;;;5.35;3.75;;;;;;;9.93;96.13;100439.75;686450;28;4283;-76
2022/04/13 01:25:13;;;;;;;6.47;3.67;;;;;;;9.92;96.76;100446.75;690174;28;1194;-76
2022/04/13 01:25:34;;;;;;;6.20;3.45;;;;;;;9.92;96.71;100444.13;689368;28;1335;-76
2022/04/13 01:25:55;;;;;;;6.03;3.80;;;;;;;9.91;96.86;100438.91;685722;28;1657;-76
2022/04/13 01:26:16;;;;;;;6.82;3.60;;;;;;;9.92;95.63;100443.28;684375;28;1163;-76
2022/04/13 01:26:37;;;;;;;7.13;3.45;;;;;;;9.93;95.44;100442.38;687723;28;1434;-76
2022/04/13 01:26:58;;;;;;;5.32;3.50;;;;;;;9.92;95.80;100436.31;689394;28;1145;-76
2022/04/13 01:27:18;;;;;;;5.55;3.42;;;;;;;9.92;96.57;100449.34;687611;28;1606;-76
2022/04/13 01:27:39;;;;;;;5.00;3.20;;;;;;;9.93;96.66;100442.38;685237;28;4310;-76
2022/04/13 01:27:59;;;;;;;6.57;3.63;;;;;;;9.93;96.50;100447.59;685286;28;1431;-76
2022/04/13 01:28:19;;;;;;;6.20;3.43;;;;;;;9.94;96.20;100444.13;688228;28;1598;-76
2022/04/13 01:28:40;;;;;;;5.70;3.40;;;;;;;9.93;96.37;100445.00;686752;28;1437;-76
2022/04/13 01:29:00;;;;;;;5.97;3.67;;;;;;;9.92;96.43;100445.88;684716;28;1277;-77
2022/04/13 01:29:21;;;;;;;5.60;3.90;;;;;;;9.91;96.63;100445.00;683971;28;1193;-77
2022/04/13 01:29:43;;;;;;;5.40;3.40;;;;;;;9.93;96.74;100443.25;683906;28;1265;-77
2022/04/13 01:30:09;;;;;;;5.80;3.40;;;;;;;9.98;96.45;100444.13;683425;28;1337;-77
2022/04/13 01:30:29;;;;;;;5.70;3.50;;;;;;;9.98;96.39;100449.34;686203;28;1398;-77
2022/04/13 01:30:50;;;;;;;5.45;3.40;;;;;;;9.94;96.62;100441.50;689269;28;4272;-77
2022/04/13 01:31:10;;;;;;;5.83;3.43;;;;;;;9.91;96.51;100446.75;692221;28;1166;-77
2022/04/13 01:31:34;;;;;;;6.50;3.63;;;;;;;9.85;96.97;100447.66;692810;28;1421;-77
2022/04/13 01:31:55;;;;;;;5.65;3.47;;;;;;;9.80;96.93;100445.09;694482;28;935;-77
2022/04/13 01:32:15;;;;;;;5.23;3.47;;;;;;;9.80;96.83;100449.41;691902;28;1256;-77
2022/04/13 01:32:35;;;;;;;5.97;3.47;;;;;;;9.80;96.12;100449.41;687475;28;1161;-77
2022/04/13 01:32:57;;;;;;;6.10;3.53;;;;;;;9.83;95.94;100449.41;686799;28;972;-77
2022/04/13 01:33:17;;;;;;;6.07;3.60;;;;;;;9.85;96.51;100468.53;688268;28;1172;-77
2022/04/13 01:33:39;;;;;;;6.40;3.53;;;;;;;9.83;96.87;100455.50;687282;28;4260;-77
2022/04/13 01:34:00;;;;;;;5.50;3.50;;;;;;;9.83;97.19;100455.50;684419;28;1383;-76
2022/04/13 01:34:21;;;;;;;5.60;3.40;;;;;;;9.83;97.28;100455.50;685345;28;1321;-77
2022/04/13 01:34:49;;;;;;;5.97;3.40;;;;;;;9.82;97.26;100447.69;684109;28;1294;-76
2022/04/13 01:35:09;;;;;;;5.95;3.63;;;;;;;9.82;97.14;100450.28;684246;28;1223;-77
2022/04/13 01:35:29;;;;;;;5.03;3.50;;;;;;;9.82;97.43;100451.16;686514;28;1431;-77
2022/04/13 01:35:50;;;;;;;5.97;3.70;;;;;;;9.82;97.45;100460.75;688146;28;1265;-76
2022/04/13 01:36:10;;;;;;;5.13;3.40;;;;;;;9.81;97.50;100446.78;687512;28;1275;-77
2022/04/13 01:36:33;;;;;;;5.18;3.45;;;;;;;9.81;97.50;100457.25;691675;28;1357;-76
2022/04/13 01:36:53;;;;;;;5.47;3.75;;;;;;;9.80;97.67;100455.53;689243;28;5076;-76
2022/04/13 01:37:14;;;;;;;6.20;3.80;;;;;;;9.81;97.44;100461.59;689295;28;1817;-78
2022/04/13 01:37:34;;;;;;;5.53;3.65;;;;;;;9.80;97.71;100459.84;690348;28;1588;-76
2022/04/13 01:37:54;;;;;;;5.93;3.93;;;;;;;9.78;97.31;100454.66;686128;28;1528;-77
2022/04/13 01:38:15;;;;;;;5.30;3.63;;;;;;;9.78;97.49;100453.78;683189;28;1525;-76
2022/04/13 01:38:35;;;;;;;6.22;3.80;;;;;;;9.80;95.43;100458.13;688140;28;1479;-77
2022/04/13 01:38:55;;;;;;;6.07;3.50;;;;;;;9.83;95.22;100460.72;689960;28;1202;-77
2022/04/13 01:39:16;;;;;;;5.57;3.37;;;;;;;9.89;96.49;100465.03;689439;28;1388;-77
2022/04/13 01:39:36;;;;;;;5.68;3.60;;;;;;;9.88;96.43;100455.47;686950;28;4336;-77
2022/04/13 01:39:57;;;;;;;5.03;3.43;;;;;;;9.88;95.32;100456.34;684750;28;1296;-76
2022/04/13 01:40:17;;;;;;;5.35;3.40;;;;;;;9.91;95.25;100458.06;687739;28;1082;-76
2022/04/13 01:40:38;;;;;;;5.40;3.73;;;;;;;9.88;96.00;100458.06;684781;28;1395;-76
2022/04/13 01:40:58;;;;;;;6.40;3.57;;;;;;;9.87;96.06;100464.16;684395;28;1022;-77
2022/04/13 01:41:19;;;;;;;6.13;3.50;;;;;;;9.87;96.57;100464.16;688111;28;1204;-77
2022/04/13 01:41:39;;;;;;;5.43;3.57;;;;;;;9.83;96.61;100465.94;685035;28;1272;-76
2022/04/13 01:42:00;;;;;;;6.25;3.45;;;;;;;9.82;96.70;100458.97;682178;28;1296;-77
2022/04/13 01:42:21;;;;;;;7.50;3.60;;;;;;;9.82;97.39;100458.13;681709;28;1459;-76
2022/04/13 01:42:42;;;;;;;6.00;3.90;;;;;;;9.82;95.31;100464.19;680076;29;4442;-77